createdAt,value
2019-01-15T00:00:21.554Z,81.50
2019-01-15T00:02:50.195Z,81.30
2019-01-15T00:05:18.989Z,81.60
2019-01-15T00:07:47.623Z,81.80
2019-01-15T00:10:16.314Z,82.20
2019-01-15T00:12:44.934Z,82.50
2019-01-15T00:15:13.742Z,82.50
2019-01-15T00:17:42.395Z,82.90
2019-01-15T00:20:13.394Z,83.50
2019-01-15T00:22:42.349Z,83.90
2019-01-15T00:25:11.158Z,83.80
2019-01-15T00:27:39.750Z,84.30
2019-01-15T00:30:16.659Z,84.50
2019-01-15T00:32:45.382Z,85.00
2019-01-15T00:35:13.962Z,85.30
2019-01-15T00:37:42.619Z,85.80
2019-01-15T00:40:14.433Z,85.60
2019-01-15T00:42:43.136Z,85.30
2019-01-15T00:45:12.550Z,84.70
2019-01-15T00:47:41.118Z,83.90
2019-01-15T00:50:14.937Z,83.70
2019-01-15T00:53:02.984Z,83.60
2019-01-15T00:55:31.634Z,83.40
2019-01-15T00:58:00.265Z,83.20
2019-01-15T01:00:28.925Z,83.30
2019-01-15T01:02:57.570Z,83.20
2019-01-15T01:05:26.212Z,82.90
2019-01-15T01:07:54.858Z,82.50
2019-01-15T01:10:23.498Z,82.80
2019-01-15T01:12:52.348Z,82.40
2019-01-15T01:15:20.914Z,82.20
2019-01-15T01:17:49.561Z,82.20
2019-01-15T01:20:21.641Z,82.60
2019-01-15T01:22:50.669Z,82.90
2019-01-15T01:25:19.306Z,83.20
2019-01-15T01:27:47.953Z,83.20
2019-01-15T01:30:21.526Z,83.40
2019-01-15T01:32:50.169Z,82.90
2019-01-15T01:35:18.822Z,83.50
2019-01-15T01:37:47.531Z,82.90
2019-01-15T01:40:18.150Z,83.30
2019-01-15T01:42:47.062Z,83.30
2019-01-15T01:45:16.582Z,83.40
2019-01-15T01:47:45.285Z,83.40
2019-01-15T01:50:14.617Z,83.20
2019-01-15T01:52:43.522Z,83.00
2019-01-15T01:55:13.833Z,83.50
2019-01-15T01:57:42.754Z,83.00
2019-01-15T02:00:16.427Z,82.80
2019-01-15T02:02:45.213Z,82.90
2019-01-15T02:05:14.221Z,82.50
2019-01-15T02:07:42.941Z,82.30
2019-01-15T02:10:16.580Z,82.60
2019-01-15T02:12:45.489Z,82.80
2019-01-15T02:15:19.570Z,82.50
2019-01-15T02:20:27.093Z,82.40
2019-01-15T02:22:55.730Z,82.40
2019-01-15T02:25:24.557Z,82.50
2019-01-15T02:27:53.766Z,82.50
2019-01-15T02:30:24.082Z,82.90
2019-01-15T02:32:52.717Z,82.60
2019-01-15T02:35:21.538Z,82.70
2019-01-15T02:37:50.288Z,81.70
2019-01-15T02:40:18.877Z,81.90
2019-01-15T02:42:47.590Z,82.20
2019-01-15T02:45:18.763Z,82.00
2019-01-15T02:47:47.978Z,81.40
2019-01-15T02:50:18.288Z,81.00
2019-01-15T02:52:47.014Z,81.30
2019-01-15T02:55:15.829Z,80.90
2019-01-15T02:57:44.533Z,80.60
2019-01-15T03:00:24.485Z,80.80
2019-01-15T03:02:53.241Z,81.30
2019-01-15T03:05:21.942Z,81.40
2019-01-15T03:07:50.673Z,81.20
2019-01-15T03:10:20.791Z,81.90
2019-01-15T03:12:55.569Z,82.20
2019-01-15T03:15:21.986Z,82.50
2019-01-15T03:17:50.702Z,82.30
2019-01-15T03:20:19.449Z,82.50
2019-01-15T03:22:48.195Z,82.40
2019-01-15T03:25:16.844Z,82.40
2019-01-15T03:27:45.551Z,82.60
2019-01-15T03:30:22.303Z,82.50
2019-01-15T03:32:51.027Z,81.70
2019-01-15T03:35:20.031Z,81.40
2019-01-15T03:37:48.938Z,81.70
2019-01-15T03:40:22.509Z,81.80
2019-01-15T03:42:51.630Z,82.20
2019-01-15T03:45:20.338Z,81.90
2019-01-15T03:47:49.117Z,81.60
2019-01-15T03:50:18.022Z,81.50
2019-01-15T03:52:46.738Z,81.70
2019-01-15T03:55:15.852Z,82.00
2019-01-15T03:57:44.798Z,81.90
2019-01-15T04:00:18.812Z,82.20
2019-01-15T04:02:47.627Z,82.30
2019-01-15T04:05:17.349Z,82.30
2019-01-15T04:07:48.026Z,82.80
2019-01-15T04:10:16.641Z,82.60
2019-01-15T04:12:45.278Z,82.80
2019-01-15T04:15:15.490Z,82.90
2019-01-15T04:17:44.222Z,82.80
2019-01-15T04:20:19.127Z,82.80
2019-01-15T04:22:47.694Z,83.30
2019-01-15T04:25:16.623Z,83.80
2019-01-15T04:27:45.258Z,83.60
2019-01-15T04:30:19.254Z,84.10
2019-01-15T04:32:48.090Z,84.40
2019-01-15T04:35:16.897Z,84.00
2019-01-15T04:37:45.721Z,83.90
2019-01-15T04:40:19.482Z,83.90
2019-01-15T04:42:48.298Z,83.90
2019-01-15T04:45:19.015Z,83.50
2019-01-15T04:47:47.727Z,84.00
2019-01-15T04:50:16.830Z,84.40
2019-01-15T04:52:47.417Z,84.80
2019-01-15T04:55:16.221Z,85.20
2019-01-15T04:57:44.857Z,85.70
2019-01-15T05:00:23.133Z,85.80
2019-01-15T05:02:52.070Z,86.00
2019-01-15T05:05:20.642Z,86.30
2019-01-15T05:07:49.286Z,86.20
2019-01-15T05:10:18.013Z,85.50
2019-01-15T05:12:46.573Z,85.30
2019-01-15T05:15:16.489Z,85.00
2019-01-15T05:17:45.527Z,85.00
2019-01-15T05:20:19.142Z,85.00
2019-01-15T05:22:47.973Z,85.20
2019-01-15T05:25:22.793Z,85.00
2019-01-15T05:27:51.940Z,84.60
2019-01-15T05:30:23.078Z,84.90
2019-01-15T05:32:51.804Z,85.00
2019-01-15T05:35:20.443Z,85.40
2019-01-15T05:37:49.154Z,85.60
2019-01-15T05:40:19.327Z,85.50
2019-01-15T05:42:48.655Z,85.20
2019-01-15T05:45:23.369Z,85.00
2019-01-15T05:47:53.711Z,83.90
2019-01-15T05:50:23.919Z,84.40
2019-01-15T05:52:52.491Z,83.80
2019-01-15T05:55:21.139Z,83.90
2019-01-15T05:57:49.706Z,84.00
2019-01-15T06:00:18.703Z,84.20
2019-01-15T06:02:47.269Z,84.20
2019-01-15T06:05:16.212Z,83.90
2019-01-15T06:07:44.778Z,84.00
2019-01-15T06:10:16.458Z,84.10
2019-01-15T06:12:45.110Z,85.20
2019-01-15T06:15:15.718Z,84.40
2019-01-15T06:17:44.352Z,84.50
2019-01-15T06:20:15.999Z,84.20
2019-01-15T06:22:44.825Z,84.30
2019-01-15T06:25:13.893Z,84.50
2019-01-15T06:27:42.594Z,85.40
2019-01-15T06:30:20.101Z,85.50
2019-01-15T06:32:49.038Z,86.20
2019-01-15T06:35:17.746Z,86.60
2019-01-15T06:37:46.391Z,87.10
2019-01-15T06:40:19.927Z,87.00
2019-01-15T06:42:48.630Z,86.80
2019-01-15T06:45:31.554Z,86.70
2019-01-15T06:48:00.263Z,86.20
2019-01-15T06:50:28.909Z,86.10
2019-01-15T06:52:57.478Z,86.00
2019-01-15T06:55:26.130Z,86.40
2019-01-15T06:57:54.842Z,86.60
2019-01-15T07:00:26.275Z,86.70
2019-01-15T07:02:55.093Z,86.40
2019-01-15T07:05:23.899Z,85.60
2019-01-15T07:07:52.654Z,85.80
2019-01-15T07:10:29.858Z,86.00
2019-01-15T07:12:58.621Z,87.10
2019-01-15T07:15:27.257Z,87.20
2019-01-15T07:17:55.846Z,87.00
2019-01-15T07:20:24.570Z,86.40
2019-01-15T07:22:53.222Z,86.60
2019-01-15T07:25:23.847Z,86.80
2019-01-15T07:27:52.482Z,86.80
2019-01-15T07:30:36.050Z,86.50
2019-01-15T07:33:05.557Z,86.20
2019-01-15T07:35:34.134Z,86.70
2019-01-15T07:38:02.907Z,86.90
2019-01-15T07:40:31.491Z,86.70
2019-01-15T07:43:00.046Z,86.60
2019-01-15T07:45:28.695Z,86.60
2019-01-15T07:47:57.330Z,86.60
2019-01-15T07:50:26.185Z,86.10
2019-01-15T07:52:54.823Z,86.00
2019-01-15T07:55:23.630Z,86.10
2019-01-15T07:57:52.262Z,86.90
2019-01-15T08:00:25.402Z,86.60
2019-01-15T08:02:54.718Z,86.80
2019-01-15T08:05:29.530Z,86.70
2019-01-15T08:07:58.245Z,86.70
2019-01-15T08:10:27.039Z,86.70
2019-01-15T08:12:55.613Z,86.60
2019-01-15T08:15:28.451Z,86.50
2019-01-15T08:17:57.335Z,86.60
2019-01-15T08:20:25.969Z,86.70
2019-01-15T08:22:54.610Z,86.80
2019-01-15T08:25:23.825Z,86.10
2019-01-15T08:27:52.562Z,85.00
2019-01-15T08:30:24.278Z,85.00
2019-01-15T08:32:52.989Z,83.40
2019-01-15T08:35:21.961Z,80.50
2019-01-15T08:37:50.594Z,78.30
2019-01-15T08:40:19.346Z,77.20
2019-01-15T08:42:48.256Z,74.80
2019-01-15T08:45:18.125Z,73.60
2019-01-15T08:47:51.534Z,72.40
2019-01-15T08:50:23.014Z,71.10
2019-01-15T08:52:51.657Z,68.00
2019-01-15T08:55:20.290Z,65.10
2019-01-15T08:57:49.106Z,62.60
2019-01-15T09:00:17.805Z,60.90
2019-01-15T09:02:46.373Z,60.10
2019-01-15T09:05:15.108Z,60.90
2019-01-15T09:07:43.785Z,61.20
2019-01-15T09:10:17.401Z,61.00
2019-01-15T09:12:46.542Z,58.90
2019-01-15T09:15:17.714Z,57.20
2019-01-15T09:17:46.413Z,55.20
2019-01-15T09:20:17.030Z,54.70
2019-01-15T09:22:45.926Z,55.00
2019-01-15T09:25:14.638Z,55.20
2019-01-15T09:27:43.270Z,55.70
2019-01-15T09:30:22.878Z,56.10
2019-01-15T09:32:52.080Z,57.10
2019-01-15T09:35:20.734Z,59.00
2019-01-15T09:37:50.318Z,60.50
2019-01-15T09:40:23.437Z,64.30
2019-01-15T09:42:52.341Z,65.40
2019-01-15T09:45:22.557Z,66.90
2019-01-15T09:47:55.793Z,67.90
2019-01-15T09:50:24.427Z,68.50
2019-01-15T09:52:53.269Z,69.10
2019-01-15T09:55:21.970Z,69.40
2019-01-15T09:57:50.622Z,71.20
2019-01-15T10:00:20.022Z,73.20
2019-01-15T10:02:48.835Z,74.60
2019-01-15T10:05:17.545Z,74.80
2019-01-15T10:07:46.446Z,77.10
2019-01-15T10:10:16.563Z,77.50
2019-01-15T10:12:45.201Z,78.10
2019-01-15T10:15:18.730Z,78.40
2019-01-15T10:17:47.357Z,78.50
2019-01-15T10:20:17.973Z,79.00
2019-01-15T10:22:47.690Z,79.20
2019-01-15T10:25:18.219Z,79.90
2019-01-15T10:27:47.823Z,80.70
2019-01-15T10:30:36.793Z,80.70
2019-01-15T10:33:17.230Z,81.50
2019-01-15T10:35:58.206Z,81.40
2019-01-15T10:38:28.718Z,81.40
2019-01-15T10:40:58.035Z,80.80
2019-01-15T10:43:27.350Z,80.30
2019-01-15T10:45:55.986Z,80.80
2019-01-15T10:48:25.015Z,80.00
2019-01-15T10:50:53.718Z,80.10
2019-01-15T10:53:22.434Z,81.10
2019-01-15T10:55:51.078Z,80.70
2019-01-15T10:58:19.714Z,80.80
2019-01-15T11:00:48.365Z,81.10
2019-01-15T11:03:16.997Z,82.50
2019-01-15T11:05:45.750Z,82.10
2019-01-15T11:08:14.450Z,81.80
2019-01-15T11:10:43.166Z,81.80
2019-01-15T11:13:11.734Z,81.40
2019-01-15T11:15:43.365Z,81.10
2019-01-15T11:18:10.742Z,81.40
2019-01-15T11:20:39.454Z,81.20
2019-01-15T11:23:08.101Z,80.60
2019-01-15T11:25:36.666Z,81.30
2019-01-15T11:28:05.686Z,81.40
2019-01-15T11:30:34.389Z,80.70
2019-01-15T11:33:03.040Z,82.20
2019-01-15T11:35:31.610Z,80.80
2019-01-15T11:38:00.343Z,81.20
2019-01-15T11:40:28.989Z,81.40
2019-01-15T11:42:57.557Z,81.60
2019-01-15T11:45:26.214Z,81.70
2019-01-15T11:47:54.919Z,82.00
2019-01-15T11:50:23.622Z,80.70
2019-01-15T11:52:52.282Z,81.20
2019-01-15T11:55:21.368Z,80.80
2019-01-15T11:57:50.162Z,81.50
2019-01-15T12:00:37.904Z,81.30
2019-01-15T12:03:08.462Z,81.70
2019-01-15T12:05:54.924Z,81.70
2019-01-15T12:08:27.918Z,82.40
2019-01-15T12:10:58.163Z,81.40
2019-01-15T12:13:44.650Z,82.70
2019-01-15T12:16:31.455Z,82.90
2019-01-15T12:19:01.666Z,82.80
2019-01-15T12:21:31.896Z,82.00
2019-01-15T12:24:11.378Z,82.50
2019-01-15T12:26:41.746Z,82.00
2019-01-15T12:29:14.910Z,80.20
2019-01-15T12:31:50.986Z,80.80
2019-01-15T12:34:21.250Z,80.00
2019-01-15T12:37:06.778Z,80.40
2019-01-15T12:39:52.985Z,80.90
2019-01-15T12:42:38.341Z,80.00
2019-01-15T12:45:18.198Z,79.10
2019-01-15T12:47:46.306Z,79.40
2019-01-15T12:50:16.657Z,80.10
2019-01-15T12:53:03.313Z,79.80
2019-01-15T12:55:45.541Z,80.20
2019-01-15T12:58:15.786Z,80.90
2019-01-15T13:01:02.542Z,80.20
2019-01-15T13:03:45.086Z,79.00
2019-01-15T13:06:24.434Z,79.80
2019-01-15T13:08:57.657Z,79.90
2019-01-15T13:11:30.666Z,79.60
2019-01-15T13:14:17.621Z,80.30
2019-01-15T13:17:03.118Z,80.00
2019-01-15T13:19:42.402Z,78.90
2019-01-15T13:22:21.454Z,80.80
2019-01-15T13:25:11.198Z,81.00
2019-01-15T13:27:44.157Z,81.40
2019-01-15T13:30:15.622Z,81.10
2019-01-15T13:32:45.829Z,81.40
2019-01-15T13:35:32.345Z,81.80
2019-01-15T13:38:02.623Z,81.30
2019-01-15T13:40:32.835Z,82.10
2019-01-15T13:43:18.146Z,82.50
2019-01-15T13:45:48.356Z,81.30
2019-01-15T13:48:21.206Z,81.80
2019-01-15T13:50:57.226Z,81.00
2019-01-15T13:53:43.554Z,82.00
2019-01-15T13:56:13.901Z,82.70
2019-01-15T13:58:52.738Z,83.00
2019-01-15T14:01:22.954Z,82.10
2019-01-15T14:03:53.241Z,82.80
2019-01-15T14:06:23.526Z,83.70
2019-01-15T14:08:59.462Z,84.50
2019-01-15T14:11:32.397Z,84.20
2019-01-15T14:14:02.602Z,83.70
2019-01-15T14:16:41.886Z,84.40
2019-01-15T14:19:14.706Z,85.30
2019-01-15T14:22:01.735Z,87.10
2019-01-15T14:24:40.910Z,87.50
2019-01-15T14:27:13.903Z,88.50
2019-01-15T14:29:46.819Z,89.90
2019-01-15T14:32:25.602Z,90.30
2019-01-15T14:35:12.069Z,90.90
2019-01-15T14:37:48.238Z,91.60
2019-01-15T14:40:18.526Z,91.70
2019-01-15T14:42:51.194Z,91.90
2019-01-15T14:45:39.850Z,92.30
2019-01-15T14:48:22.102Z,92.70
2019-01-15T14:50:52.318Z,93.00
2019-01-15T14:53:28.782Z,93.10
2019-01-15T14:56:17.102Z,93.20
2019-01-15T14:58:59.490Z,93.20
2019-01-15T15:01:41.833Z,93.10
2019-01-15T15:04:12.162Z,92.40
2019-01-15T15:06:42.374Z,92.50
2019-01-15T15:09:28.213Z,92.60
2019-01-15T15:12:10.658Z,92.70
2019-01-15T15:14:57.498Z,93.10
2019-01-15T15:17:36.930Z,92.90
2019-01-15T15:20:22.478Z,93.20
2019-01-15T15:22:52.682Z,93.10
2019-01-15T15:25:22.990Z,93.30
2019-01-15T15:27:56.266Z,93.50
2019-01-15T15:30:29.581Z,93.40
2019-01-15T15:33:05.526Z,93.50
2019-01-15T15:35:35.970Z,93.50
2019-01-15T15:38:06.246Z,93.80
2019-01-15T15:40:36.522Z,93.90
2019-01-15T15:43:23.469Z,93.90
2019-01-15T15:45:53.674Z,94.00
2019-01-15T15:48:26.346Z,93.90
2019-01-15T15:51:08.562Z,94.10
2019-01-15T15:53:44.649Z,94.30
2019-01-15T15:56:31.082Z,94.40
2019-01-15T15:59:01.298Z,94.60
2019-01-15T16:01:47.894Z,94.80
2019-01-15T16:04:33.238Z,95.00
2019-01-15T16:07:03.587Z,95.20
2019-01-15T16:09:50.557Z,95.40
2019-01-15T16:12:37.334Z,95.50
2019-01-15T16:15:09.998Z,95.80
2019-01-15T16:17:46.081Z,96.10
2019-01-15T16:20:28.199Z,96.30
2019-01-15T16:23:07.430Z,96.40
2019-01-15T16:25:43.442Z,96.60
2019-01-15T16:28:31.514Z,97.00
2019-01-15T16:31:13.414Z,97.10
2019-01-15T16:33:55.943Z,97.20
2019-01-15T16:36:26.162Z,97.20
2019-01-15T16:38:59.098Z,97.10
2019-01-15T16:41:41.614Z,97.20
2019-01-15T16:44:11.957Z,97.60
2019-01-15T16:46:45.182Z,97.80
2019-01-15T16:49:18.119Z,98.00
2019-01-15T16:51:48.389Z,98.20
2019-01-15T16:54:18.621Z,98.30
2019-01-15T16:57:05.430Z,98.30
2019-01-15T16:59:52.190Z,98.40
2019-01-15T17:02:38.605Z,98.50
2019-01-15T17:05:25.790Z,98.50
2019-01-15T17:08:10.686Z,98.50
2019-01-15T17:10:40.954Z,98.50
2019-01-15T17:13:13.661Z,98.50
2019-01-15T17:15:52.621Z,98.60
2019-01-15T17:18:28.914Z,98.60
2019-01-15T17:21:07.971Z,98.60
2019-01-15T17:23:53.994Z,98.90
2019-01-15T17:26:30.177Z,99.00
2019-01-15T17:29:09.378Z,99.20
2019-01-15T17:31:57.758Z,99.10
2019-01-15T17:34:34.259Z,99.20
2019-01-15T17:37:07.210Z,99.20
2019-01-15T17:39:40.362Z,99.30
2019-01-15T17:42:10.709Z,99.40
2019-01-15T17:44:43.906Z,99.50
2019-01-15T17:47:30.550Z,99.50
2019-01-15T17:50:17.002Z,99.70
2019-01-15T17:52:52.949Z,99.80
2019-01-15T17:55:32.006Z,99.90
2019-01-15T17:58:02.227Z,99.80
2019-01-15T18:00:35.662Z,99.90
2019-01-15T18:03:11.658Z,99.90
2019-01-15T18:05:44.886Z,99.90
2019-01-15T18:08:27.046Z,99.90
2019-01-15T18:10:57.278Z,99.90
2019-01-15T18:13:30.342Z,99.80
2019-01-15T18:16:12.490Z,99.80
2019-01-15T18:18:48.918Z,99.80
2019-01-15T18:21:34.218Z,99.80
2019-01-15T18:24:04.594Z,99.80
2019-01-15T18:26:40.429Z,99.90
2019-01-15T18:29:16.578Z,99.90
2019-01-15T18:31:49.910Z,99.90
2019-01-15T18:34:29.866Z,99.80
2019-01-15T18:37:05.719Z,99.90
2019-01-15T18:39:52.268Z,99.80
2019-01-15T18:42:28.403Z,99.60
2019-01-15T18:45:10.963Z,99.50
2019-01-15T18:47:44.133Z,99.40
2019-01-15T18:50:31.483Z,99.30
2019-01-15T18:53:13.562Z,99.20
2019-01-15T18:55:53.118Z,99.20
2019-01-15T18:58:26.118Z,99.60
2019-01-15T19:01:02.422Z,99.70
2019-01-15T19:03:35.253Z,99.90
2019-01-15T19:06:05.734Z,99.90
2019-01-15T19:08:41.681Z,99.90
2019-01-15T19:11:15.010Z,99.90
2019-01-15T19:14:00.565Z,99.90
2019-01-15T19:16:33.206Z,99.90
2019-01-15T19:19:06.290Z,99.90
2019-01-15T19:21:42.517Z,99.90
2019-01-15T19:24:28.914Z,99.90
2019-01-15T19:26:59.122Z,99.90
2019-01-15T19:29:41.685Z,99.90
2019-01-15T19:32:11.910Z,99.90
2019-01-15T19:34:44.642Z,99.90
2019-01-15T19:37:30.206Z,99.90
2019-01-15T19:40:00.531Z,99.90
2019-01-15T19:42:46.046Z,99.90
2019-01-15T19:45:25.102Z,99.90
2019-01-15T19:47:55.336Z,99.90
2019-01-15T19:50:25.546Z,99.90
2019-01-15T19:52:56.077Z,99.90
2019-01-15T19:55:32.098Z,99.90
2019-01-15T19:58:11.674Z,99.90
2019-01-15T20:00:44.882Z,99.90
2019-01-15T20:03:15.094Z,99.90
2019-01-15T20:06:00.399Z,99.90
2019-01-15T20:08:30.610Z,99.90
2019-01-15T20:11:09.927Z,99.90
2019-01-15T20:13:46.164Z,99.90
2019-01-15T20:16:25.394Z,99.90
2019-01-15T20:18:55.606Z,99.90
2019-01-15T20:21:34.673Z,99.90
2019-01-15T20:24:04.954Z,99.90
2019-01-15T20:26:37.818Z,99.90
2019-01-15T20:29:14.117Z,99.90
2019-01-15T20:31:50.498Z,99.90
2019-01-15T20:34:30.026Z,99.90
2019-01-15T20:37:09.378Z,99.90
2019-01-15T20:39:42.760Z,99.90
2019-01-15T20:42:29.431Z,99.90
2019-01-15T20:45:02.482Z,99.90
2019-01-15T20:47:38.970Z,99.90
2019-01-15T20:50:28.211Z,99.90
2019-01-15T20:53:10.178Z,99.90
2019-01-15T20:55:56.958Z,99.90
2019-01-15T20:58:42.758Z,99.90
2019-01-15T21:01:31.381Z,99.90
2019-01-15T21:04:19.933Z,99.90
2019-01-15T21:06:52.763Z,99.90
2019-01-15T21:09:41.239Z,99.90
2019-01-15T21:12:28.006Z,99.90
2019-01-15T21:15:04.097Z,99.90
2019-01-15T21:17:43.090Z,99.90
2019-01-15T21:20:13.651Z,99.90
2019-01-15T21:23:00.434Z,99.90
2019-01-15T21:25:47.251Z,99.90
2019-01-15T21:28:20.475Z,99.90
2019-01-15T21:31:07.130Z,99.90
2019-01-15T21:33:37.761Z,99.90
2019-01-15T21:36:26.410Z,99.90
2019-01-15T21:39:02.998Z,99.90
2019-01-15T21:41:39.311Z,99.90
2019-01-15T21:44:26.054Z,99.90
2019-01-15T21:47:08.482Z,99.90
2019-01-15T21:49:44.899Z,99.90
2019-01-15T21:52:15.218Z,99.90
2019-01-15T21:54:57.534Z,99.90
2019-01-15T21:57:30.978Z,99.90
2019-01-15T22:00:18.026Z,99.90
2019-01-15T22:02:54.082Z,99.90
2019-01-15T22:05:24.382Z,99.90
2019-01-15T22:08:11.030Z,99.90
2019-01-15T22:10:41.266Z,99.90
2019-01-15T22:13:23.726Z,99.90
2019-01-15T22:15:59.830Z,99.90
2019-01-15T22:18:33.003Z,99.90
2019-01-15T22:21:03.238Z,99.90
2019-01-15T22:23:42.503Z,99.90
2019-01-15T22:26:27.622Z,99.90
2019-01-15T22:29:07.126Z,99.90
2019-01-15T22:31:40.530Z,99.90
2019-01-15T22:34:16.774Z,99.90
2019-01-15T22:37:04.098Z,99.90
2019-01-15T22:39:34.309Z,99.90
2019-01-15T22:42:13.233Z,99.90
2019-01-15T22:44:58.618Z,99.90
2019-01-15T22:47:28.918Z,99.90
2019-01-15T22:52:48.318Z,99.90
2019-01-15T22:55:21.555Z,99.90
2019-01-15T22:58:01.108Z,99.90
2019-01-15T23:00:50.534Z,99.90
2019-01-15T23:03:23.928Z,99.90
2019-01-15T23:05:56.583Z,99.90
2019-01-15T23:08:35.757Z,99.90
2019-01-15T23:11:22.730Z,99.90
2019-01-15T23:13:58.998Z,99.90
2019-01-15T23:16:44.678Z,99.90
2019-01-15T23:19:14.963Z,99.90
2019-01-15T23:21:51.141Z,99.90
2019-01-15T23:24:27.350Z,99.90
2019-01-15T23:27:06.762Z,99.90
2019-01-15T23:29:40.011Z,99.90
2019-01-15T23:32:10.298Z,99.90
2019-01-15T23:34:40.524Z,99.90
2019-01-15T23:37:10.795Z,99.90
2019-01-15T23:39:57.166Z,99.90
2019-01-15T23:42:30.110Z,99.90
2019-01-15T23:45:12.078Z,99.90
2019-01-15T23:47:58.822Z,99.90
2019-01-15T23:50:35.306Z,99.90
2019-01-15T23:53:14.938Z,99.90
2019-01-15T23:56:01.749Z,99.90
2019-01-15T23:58:31.961Z,99.90
